Flight Track Log - Related Links

Times and Time Zones

All times are in EDT time to prevent confusion due to time zone crossing. See the N546QS flight status page for this flight to view local times or setup timezone preferences in your user account.

Time Position Orientation Groundspeed Altitude Reporting Facility
EDT Latitude Longitude Course Direction KTS MPH feet Rate Location/Type
Thu 08:25:32 PM 41.8167 -87.7667 246° West 217 250 2,800  Level Chicago TRACON
Thu 08:26:32 PM 41.7833 -87.8667 246° West 238 274 3,000 121 Climbing Chicago TRACON
Thu 08:27:11 PM 41.7706 -87.9011 244° Southwest 236 272 3,000  Level Chicago Center
Thu 08:28:13 PM 41.7458 -87.9811 248° West 236 272 3,000 484 Level Chicago Center
Thu 08:29:15 PM 41.7411 -88.0692 266° West 239 275 4,000 2,177 Climbing Chicago Center
Thu 08:30:17 PM 41.7586 -88.1672 283° West 234 269 7,500 2,903 Climbing Chicago Center
Thu 08:31:19 PM 41.7703 -88.2567 280° West 252 290 10,000 2,177 Climbing Chicago Center
Thu 08:32:21 PM 41.7683 -88.3597 269° West 279 321 12,000 1,645 Climbing Chicago Center
Thu 08:33:23 PM 41.7850 -88.4689 282° West 304 350 13,400 1,984 Climbing Chicago Center
Thu 08:34:25 PM 41.7944 -88.6381 274° West 391 450 16,100 2,516 Climbing Chicago Center
Thu 08:35:27 PM 41.7903 -88.7803 268° West 389 448 18,600 2,419 Climbing Chicago Center
Thu 08:36:29 PM 41.7872 -88.9267 268° West 394 453 21,100 2,419 Climbing Chicago Center
Thu 08:37:31 PM 41.7856 -89.0783 269° West 408 470 23,600 2,419 Climbing Chicago Center
Thu 08:38:33 PM 41.7831 -89.2353 269° West 427 491 26,100 2,544 Climbing Chicago Center
Thu 08:39:36 PM 41.7794 -89.4222 269° West 424 488 28,900 1,392 Climbing Chicago Center
Thu 08:40:38 PM 41.7758 -89.5753 268° West 422 486 29,000 48 Climbing Chicago Center
Thu 08:41:40 PM 41.7611 -89.7319 263° West 425 489 29,000 774 Level Chicago Center
Thu 08:42:42 PM 41.7378 -89.8900 259° West 433 498 30,600 1,452 Climbing Chicago Center
Thu 08:43:44 PM 41.7319 -90.0508 267° West 433 498 32,000 1,065 Climbing Chicago Center
Thu 08:44:46 PM 41.7278 -90.2406 268° West 429 494 32,800 968 Climbing Chicago Center
Thu 08:45:48 PM 41.7239 -90.3947 268° West 420 483 34,000 1,258 Climbing Chicago Center
Thu 08:46:50 PM 41.7208 -90.5428 268° West 405 466 35,400 968 Climbing Chicago Center
Thu 08:47:52 PM 41.7158 -90.7072 268° West 406 467 36,000 290 Climbing Chicago Center
Thu 08:48:54 PM 41.7119 -90.8550 268° West 402 463 36,000 629 Level Chicago Center
Thu 08:49:56 PM 41.7078 -91.0047 268° West 404 465 37,300 968 Climbing Chicago Center
Thu 08:50:58 PM 41.7033 -91.1572 268° West 411 473 38,000 336 Climbing Chicago Center
Thu 08:52:01 PM 41.6978 -91.3172 267° West 428 493 38,000  Level Chicago Center
Thu 08:53:03 PM 41.6933 -91.5081 268° West 430 495 38,000  Level Chicago Center
Thu 08:54:05 PM 41.6872 -91.6669 267° West 429 494 38,000  Level Chicago Center
Thu 08:55:07 PM 41.6806 -91.8275 267° West 432 497 38,000  Level Chicago Center
Thu 08:56:09 PM 41.6750 -91.9853 267° West 429 494 38,000  Level Chicago Center
Thu 08:57:11 PM 41.6683 -92.1450 267° West 432 497 38,000  Level Chicago Center
Thu 08:58:13 PM 41.6608 -92.3378 267° West 435 501 38,000 -97 Level Chicago Center
Thu 08:59:15 PM 41.6542 -92.4986 267° West 436 502 37,800 -484 Descending Chicago Center
Thu 09:00:17 PM 41.6472 -92.6536 267° West 422 486 37,000 -720 Descending Chicago Center
Thu 09:01:20 PM 41.6400 -92.7997 266° West 415 478 36,300 -756 Descending Chicago Center
Thu 09:02:16 PM 41.6344 -92.9558 267° West 420 483 35,500 -814 Descending Minneapolis Center
Thu 09:03:18 PM 41.6261 -93.1114 266° West 423 487 34,700 -919 Descending Minneapolis Center
Thu 09:04:20 PM 41.6175 -93.2969 267° West 422 486 33,600 -1,258 Descending Minneapolis Center
Thu 09:05:22 PM 41.6094 -93.4556 266° West 428 493 32,100 -1,500 Descending Minneapolis Center
Thu 09:06:24 PM 41.6025 -93.6128 267° West 429 494 30,500 -1,500 Descending Minneapolis Center
Thu 09:07:26 PM 41.5939 -93.7764 266° West 440 506 29,000 -1,500 Descending Minneapolis Center
Thu 09:08:28 PM 41.5842 -93.9403 266° West 445 512 27,400 -1,645 Descending Minneapolis Center
Thu 09:09:30 PM 41.5744 -94.1319 266° West 440 506 25,600 -1,548 Descending Minneapolis Center
Thu 09:10:32 PM 41.5653 -94.2731 265° West 436 502 24,200 -1,548 Descending Minneapolis Center
Thu 09:11:34 PM 41.5542 -94.4617 266° West 426 490 22,400 -1,548 Descending Minneapolis Center
Thu 09:12:36 PM 41.5456 -94.6167 266° West 421 484 21,000 -1,392 Descending Minneapolis Center
Thu 09:13:39 PM 41.5358 -94.7681 265° West 411 473 19,500 -1,469 Descending Minneapolis Center
Thu 09:14:14 PM 41.5433 -94.8708 276° West 410 472 18,600 -1,355 Descending Minneapolis Center
Thu 09:14:41 PM 41.5261 -94.9178 244° Southwest 405 466 18,100 -1,281 Descending Minneapolis Center
Thu 09:15:43 PM 41.5178 -95.0631 266° West 396 456 16,700 -1,500 Descending Minneapolis Center
Thu 09:16:09 PM 41.5200 -95.1497 272° West 389 448 15,900 -1,355 Descending Minneapolis Center
Thu 09:16:45 PM 41.5031 -95.2028 247° West 384 442 15,300 -1,347 Descending Minneapolis Center
Thu 09:17:47 PM 41.4514 -95.3300 242° Southwest 328 377 13,700 -1,742 Descending Minneapolis Center
Thu 09:18:49 PM 41.4003 -95.4172 232° Southwest 304 350 11,700 -2,268 Descending Minneapolis Center
Thu 09:19:54 PM 41.3622 -95.5256 245° Southwest 283 326 8,900 -2,371 Descending Minneapolis Center
Thu 09:20:53 PM 41.3239 -95.6008 236° Southwest 287 330 6,800 -2,182 Descending Minneapolis Center
Thu 09:21:55 PM 41.2883 -95.6889 242° Southwest 278 320 4,500 -1,403 Descending Minneapolis Center
Thu 09:22:57 PM 41.2553 -95.7656 240° Southwest 255 293 3,900 -1,070 Descending Minneapolis Center
Thu 09:24:04 PM 41.2522 -95.8442 267° West 155 178 2,200 -1,258 Descending Minneapolis Center
Thu 09:25:01 PM 41.2797 -95.8694 325° Northwest 159 183 1,300 -947 Descending Minneapolis Center
Thu 09:27:00 PM 41.3000 -95.8833 252° West  Level FlightAware Approximate

Login

Don't have an account? Register now (free) for customized features, flight alerts, and more!